createdAt,value
2023-05-24T00:04:33.152Z,0.00
2023-05-24T00:09:33.054Z,0.00
2023-05-24T00:14:32.985Z,0.00
2023-05-24T00:19:32.911Z,0.00
2023-05-24T00:24:32.841Z,0.00
2023-05-24T00:29:32.783Z,0.00
2023-05-24T00:34:32.707Z,0.00
2023-05-24T00:39:32.646Z,0.00
2023-05-24T00:44:32.595Z,0.00
2023-05-24T00:49:32.508Z,0.00
2023-05-24T00:54:32.439Z,0.00
2023-05-24T00:59:32.376Z,0.00
2023-05-24T01:04:32.312Z,0.00
2023-05-24T01:09:32.246Z,0.00
2023-05-24T01:14:32.170Z,0.00
2023-05-24T01:19:32.110Z,0.00
2023-05-24T01:24:32.034Z,0.00
2023-05-24T01:29:31.978Z,0.00
2023-05-24T01:34:31.907Z,0.00
2023-05-24T01:39:31.844Z,0.00
2023-05-24T01:44:31.776Z,0.00
2023-05-24T01:49:31.722Z,0.00
2023-05-24T01:54:31.634Z,0.00
2023-05-24T01:59:31.599Z,0.00
2023-05-24T02:04:31.507Z,0.00
2023-05-24T02:09:31.431Z,0.00
2023-05-24T02:14:31.365Z,0.00
2023-05-24T02:19:31.334Z,0.00
2023-05-24T02:24:31.246Z,0.00
2023-05-24T02:29:31.165Z,0.00
2023-05-24T02:34:31.093Z,0.00
2023-05-24T02:39:31.035Z,8.00
2023-05-24T02:44:30.960Z,12.00
2023-05-24T02:49:30.895Z,20.00
2023-05-24T02:54:30.834Z,32.00
2023-05-24T02:59:30.763Z,56.00
2023-05-24T03:04:30.696Z,72.00
2023-05-24T03:09:30.625Z,108.00
2023-05-24T03:14:30.562Z,144.00
2023-05-24T03:19:30.510Z,192.00
2023-05-24T03:24:30.435Z,244.00
2023-05-24T03:29:30.383Z,272.00
2023-05-24T03:34:30.310Z,344.00
2023-05-24T03:39:30.228Z,436.00
2023-05-24T03:44:30.172Z,520.00
2023-05-24T03:49:30.094Z,604.00
2023-05-24T03:54:30.022Z,732.00
2023-05-24T03:59:29.964Z,904.00
2023-05-24T04:04:29.926Z,1196.00
2023-05-24T04:09:29.855Z,1380.00
2023-05-24T04:14:29.760Z,1668.00
2023-05-24T04:19:29.696Z,1888.00
2023-05-24T04:24:29.686Z,2796.00
2023-05-24T04:29:29.565Z,3352.00
2023-05-24T04:34:29.490Z,3240.00
2023-05-24T04:39:29.430Z,4068.00
2023-05-24T04:44:29.366Z,3708.00
2023-05-24T04:49:29.313Z,3316.00
2023-05-24T04:54:29.234Z,3000.00
2023-05-24T04:59:29.165Z,2992.00
2023-05-24T05:04:29.093Z,3084.00
2023-05-24T05:09:29.033Z,3480.00
2023-05-24T05:14:28.967Z,4212.00
2023-05-24T05:19:28.902Z,4956.00
2023-05-24T05:24:28.829Z,5004.00
2023-05-24T05:29:28.788Z,5140.00
2023-05-24T05:34:28.696Z,5684.00
2023-05-24T05:39:28.633Z,7004.00
2023-05-24T05:44:28.553Z,6932.00
2023-05-24T05:49:28.522Z,9420.00
2023-05-24T05:54:28.435Z,8100.00
2023-05-24T05:59:28.368Z,11408.00
2023-05-24T06:04:28.368Z,14352.00
2023-05-24T06:09:28.245Z,19808.00
2023-05-24T06:14:28.201Z,34240.00
2023-05-24T06:19:28.106Z,31104.00
2023-05-24T06:24:28.027Z,11984.00
2023-05-24T06:29:27.953Z,8448.00
2023-05-24T06:34:27.885Z,12504.00
2023-05-24T06:39:27.823Z,15096.00
2023-05-24T06:44:27.761Z,16512.00
2023-05-24T06:49:27.704Z,11972.00
2023-05-24T06:54:27.633Z,14676.00
2023-05-24T06:59:27.569Z,23424.00
2023-05-24T07:04:27.521Z,23392.00
2023-05-24T07:09:27.442Z,11816.00
2023-05-24T07:14:27.419Z,7612.00
2023-05-24T07:19:27.304Z,7724.00
2023-05-24T07:24:27.227Z,7828.00
2023-05-24T07:29:27.245Z,6060.00
2023-05-24T07:34:27.091Z,4844.00
2023-05-24T07:39:27.057Z,4204.00
2023-05-24T07:44:27.017Z,4396.00
2023-05-24T07:49:26.899Z,4968.00
2023-05-24T07:54:26.983Z,5556.00
2023-05-24T07:59:26.828Z,6080.00
2023-05-24T08:04:26.760Z,6436.00
2023-05-24T08:09:26.733Z,6896.00
2023-05-24T08:14:26.665Z,6760.00
2023-05-24T08:19:26.576Z,8172.00
2023-05-24T08:24:26.505Z,8856.00
2023-05-24T08:29:26.437Z,8048.00
2023-05-24T08:34:26.390Z,7420.00
2023-05-24T08:39:26.322Z,7532.00
2023-05-24T08:44:26.253Z,8280.00
2023-05-24T08:49:26.148Z,8748.00
2023-05-24T08:54:26.066Z,9240.00
2023-05-24T08:59:26.215Z,10220.00
2023-05-24T09:04:26.013Z,14180.00
2023-05-24T09:09:25.879Z,18528.00
2023-05-24T09:14:25.841Z,15744.00
2023-05-24T09:19:25.763Z,15488.00
2023-05-24T09:24:25.705Z,16864.00
2023-05-24T09:29:25.606Z,16160.00
2023-05-24T09:34:25.538Z,13736.00
2023-05-24T09:39:25.520Z,13328.00
2023-05-24T09:44:25.416Z,19616.00
2023-05-24T09:49:25.340Z,22144.00
2023-05-24T09:54:25.283Z,18880.00
2023-05-24T09:59:25.526Z,17408.00
2023-05-24T10:04:26.777Z,14296.00
2023-05-24T10:09:25.060Z,16544.00
2023-05-24T10:14:25.313Z,16768.00
2023-05-24T10:19:24.950Z,19360.00
2023-05-24T10:24:25.189Z,16128.00
2023-05-24T10:29:24.816Z,15296.00
2023-05-24T10:34:24.740Z,15648.00
2023-05-24T10:39:24.869Z,17088.00
2023-05-24T10:44:24.592Z,17376.00
2023-05-24T10:49:24.549Z,15616.00
2023-05-24T10:54:24.465Z,15744.00
2023-05-24T10:59:24.393Z,17376.00
2023-05-24T11:04:24.308Z,14592.00
2023-05-24T11:09:24.719Z,16160.00
2023-05-24T11:14:24.161Z,15136.00
2023-05-24T11:19:24.097Z,13612.00
2023-05-24T11:24:24.024Z,13144.00
2023-05-24T11:29:23.983Z,14112.00
2023-05-24T11:34:23.933Z,15456.00
2023-05-24T11:39:23.892Z,15168.00
2023-05-24T11:44:23.769Z,14048.00
2023-05-24T11:49:23.694Z,13368.00
2023-05-24T11:54:23.623Z,11888.00
2023-05-24T11:59:23.588Z,13368.00
2023-05-24T12:04:23.611Z,13664.00
2023-05-24T12:09:23.443Z,10616.00
2023-05-24T12:14:23.356Z,11608.00
2023-05-24T12:19:32.887Z,11000.00
2023-05-24T12:24:24.234Z,10320.00
2023-05-24T12:29:23.171Z,10844.00
2023-05-24T12:34:23.100Z,11032.00
2023-05-24T12:39:23.033Z,12224.00
2023-05-24T12:44:22.997Z,11284.00
2023-05-24T12:49:22.881Z,8740.00
2023-05-24T12:54:22.830Z,8628.00
2023-05-24T12:59:22.736Z,8476.00
2023-05-24T13:04:22.683Z,7880.00
2023-05-24T13:09:22.626Z,8184.00
2023-05-24T13:14:22.554Z,8976.00
2023-05-24T13:19:22.503Z,9768.00
2023-05-24T13:24:22.405Z,9540.00
2023-05-24T13:29:36.448Z,9004.00
2023-05-24T13:34:23.288Z,8844.00
2023-05-24T13:39:22.210Z,9352.00
2023-05-24T13:44:22.135Z,9216.00
2023-05-24T13:49:22.067Z,8472.00
2023-05-24T13:54:22.009Z,8012.00
2023-05-24T13:59:21.925Z,7152.00
2023-05-24T14:04:21.930Z,6476.00
2023-05-24T14:09:21.806Z,6364.00
2023-05-24T14:14:58.410Z,6584.00
2023-05-24T14:19:22.693Z,6960.00
2023-05-24T14:24:21.597Z,7304.00
2023-05-24T14:29:21.536Z,6768.00
2023-05-24T14:34:21.469Z,7508.00
2023-05-24T14:39:21.398Z,6932.00
2023-05-24T14:44:21.340Z,6556.00
2023-05-24T14:49:21.262Z,6016.00
2023-05-24T14:54:21.204Z,5580.00
2023-05-24T14:59:21.165Z,5008.00
2023-05-24T15:04:21.073Z,5100.00
2023-05-24T15:09:21.014Z,4456.00
2023-05-24T15:14:20.953Z,4284.00
2023-05-24T15:19:20.865Z,5000.00
2023-05-24T15:24:20.802Z,4944.00
2023-05-24T15:29:20.732Z,4888.00
2023-05-24T15:34:23.438Z,4792.00
2023-05-24T15:39:20.597Z,4604.00
2023-05-24T15:44:20.573Z,4676.00
2023-05-24T15:49:20.471Z,4308.00
2023-05-24T15:54:20.397Z,4544.00
2023-05-24T15:59:21.560Z,4312.00
2023-05-24T16:04:20.310Z,4540.00
2023-05-24T16:09:20.195Z,4520.00
2023-05-24T16:14:20.125Z,4472.00
2023-05-24T16:19:20.053Z,4416.00
2023-05-24T16:24:20.017Z,4376.00
2023-05-24T16:29:19.929Z,4196.00
2023-05-24T16:34:19.854Z,4292.00
2023-05-24T16:39:19.805Z,4352.00
2023-05-24T16:44:19.739Z,4448.00
2023-05-24T16:49:19.669Z,4152.00
2023-05-24T16:54:19.595Z,3868.00
2023-05-24T16:59:19.565Z,3728.00
2023-05-24T17:04:19.493Z,3432.00
2023-05-24T17:09:19.410Z,3268.00
2023-05-24T17:14:19.333Z,3164.00
2023-05-24T17:19:19.266Z,3140.00
2023-05-24T17:24:19.444Z,2948.00
2023-05-24T17:29:19.135Z,2840.00
2023-05-24T17:34:19.067Z,2720.00
2023-05-24T17:39:18.991Z,2560.00
2023-05-24T17:44:18.962Z,2408.00
2023-05-24T17:49:18.877Z,2252.00
2023-05-24T17:54:19.779Z,2092.00
2023-05-24T17:59:18.753Z,1908.00
2023-05-24T18:04:19.397Z,1780.00
2023-05-24T18:09:18.689Z,1616.00
2023-05-24T18:14:18.616Z,1440.00
2023-05-24T18:19:18.541Z,1268.00
2023-05-24T18:24:18.400Z,1096.00
2023-05-24T18:29:18.359Z,928.00
2023-05-24T18:34:18.289Z,764.00
2023-05-24T18:39:18.180Z,612.00
2023-05-24T18:44:18.137Z,472.00
2023-05-24T18:49:18.441Z,348.00
2023-05-24T18:54:18.017Z,248.00
2023-05-24T18:59:17.944Z,160.00
2023-05-24T19:04:17.909Z,104.00
2023-05-24T19:09:17.782Z,64.00
2023-05-24T19:14:17.819Z,36.00
2023-05-24T19:19:17.653Z,16.00
2023-05-24T19:24:17.585Z,12.00
2023-05-24T19:29:17.544Z,4.00
2023-05-24T19:34:17.502Z,0.00
2023-05-24T19:39:17.418Z,4.00
2023-05-24T19:44:17.378Z,0.00
2023-05-24T19:49:17.292Z,0.00
2023-05-24T19:54:17.198Z,0.00
2023-05-24T19:59:17.149Z,0.00
2023-05-24T20:04:17.154Z,0.00
2023-05-24T20:09:17.498Z,0.00
2023-05-24T20:14:16.938Z,0.00
2023-05-24T20:19:16.857Z,0.00
2023-05-24T20:24:16.792Z,0.00
2023-05-24T20:29:16.720Z,0.00
2023-05-24T20:34:16.650Z,0.00
2023-05-24T20:39:16.578Z,0.00
2023-05-24T20:44:16.545Z,0.00
2023-05-24T20:49:16.464Z,0.00
2023-05-24T20:54:16.373Z,0.00
2023-05-24T20:59:16.320Z,0.00
2023-05-24T21:04:16.266Z,0.00
2023-05-24T21:09:16.176Z,0.00
2023-05-24T21:14:16.122Z,0.00
2023-05-24T21:19:16.051Z,0.00
2023-05-24T21:24:15.998Z,0.00
2023-05-24T21:29:15.910Z,0.00
2023-05-24T21:34:15.853Z,0.00
2023-05-24T21:39:15.779Z,0.00
2023-05-24T21:44:15.706Z,0.00
2023-05-24T21:49:15.656Z,0.00
2023-05-24T21:54:15.580Z,0.00
2023-05-24T21:59:15.522Z,0.00
2023-05-24T22:04:15.585Z,0.00
2023-05-24T22:09:15.395Z,0.00
2023-05-24T22:14:15.332Z,0.00
2023-05-24T22:19:18.451Z,0.00
2023-05-24T22:24:16.201Z,0.00
2023-05-24T22:29:15.152Z,0.00
2023-05-24T22:34:15.062Z,0.00
2023-05-24T22:39:14.995Z,0.00
2023-05-24T22:44:14.936Z,0.00
2023-05-24T22:49:14.876Z,0.00
2023-05-24T22:54:14.797Z,0.00
2023-05-24T22:59:14.736Z,0.00
2023-05-24T23:04:21.262Z,0.00
2023-05-24T23:09:15.588Z,0.00
2023-05-24T23:14:14.542Z,0.00
2023-05-24T23:19:14.449Z,0.00
2023-05-24T23:24:14.411Z,0.00
2023-05-24T23:29:14.375Z,0.00
2023-05-24T23:34:14.254Z,0.00
2023-05-24T23:39:14.179Z,0.00
2023-05-24T23:44:14.126Z,0.00
2023-05-24T23:49:14.066Z,0.00
2023-05-24T23:54:14.004Z,0.00
2023-05-24T23:59:13.906Z,0.00
